Edmonton International Airport

METAR CYEG TAF CYEG
-20 °C
°C
-
°C
14m
Âge
08:13:32
LT
07:13
UTC
0 ft

4.000

8.000

12.000

16.000

20.000

FEW 6.000
BKN 11.000
OVC 15.000
VFR
<?= Yii::t('app', 'Wind direction') ?> <?= Yii::t('app', 'of'); ?>
120°
08:16
Lever du soleil
71%
Humidité
Cisaillement du vent
Fermé/neige
Portée visuelle RWY
Condition RWY
Visibilité vert.
Visibilité min.
CAVOK
Tendance
Correction
Rapport spécial
30,29 inHg
QNH
METAR CYEG 020700Z 12010KT 20SM -SN DRSN FEW060 BKN110 OVC150 M20/M24 A3029 RMK SC1AC7AC1 SC TR SLP330
Neige légère, chasse basse neige
10 kt
10 kt
00:00
VFR
10 kt
01:00
VFR
10 kt
02:00
VFR
10 kt
03:00
VFR
10 kt
04:00
VFR
10 kt
05:00
VFR
10 kt
06:00
IFR
15 kt
20 mi
Vue
11.000 ft
Base cloud
10 kt
Vent
metar-taf.com/CYEG

Metar-Taf.com

Décodeur visuel

Nous et des tiers suivons ton comportement Internet sur notre site Web à l'aide de cookies. Si tu continues, nous supposons que tu es d'accord avec notre Politique en matière de cookies.